Time;durP1;ratioP1;P1;durP2;ratioP2;P2;SDS_P1;SDS_P2;PMS_P1;PMS_P2;Temp;Humidity;BMP_temperature;BMP_pressure;BME280_temperature;BME280_humidity;BME280_pressure;Samples;Min_cycle;Max_cycle;Signal;HPM_P1;HPM_P2
2021/12/31 00:01:10;;;;;;;8.35;3.60;;;15.10;86.40;;;;;;5065727;28;20097;-72
2021/12/31 00:03:36;;;;;;;9.15;3.10;;;15.10;86.40;;;;;;5065472;28;20127;-72
2021/12/31 00:06:02;;;;;;;7.20;2.65;;;15.10;86.40;;;;;;5065707;28;20448;-72
2021/12/31 00:08:28;;;;;;;6.93;2.65;;;15.10;86.40;;;;;;5065715;28;20040;-72
2021/12/31 00:10:59;;;;;;;11.93;3.70;;;15.10;86.50;;;;;;5066184;28;20031;-72
2021/12/31 00:13:29;;;;;;;7.47;2.47;;;15.00;86.20;;;;;;5065181;28;20479;-72
2021/12/31 00:15:56;;;;;;;10.10;3.10;;;15.10;86.50;;;;;;5066154;28;20028;-71
2021/12/31 00:18:22;;;;;;;9.20;3.45;;;15.10;86.50;;;;;;5065595;28;20028;-72
2021/12/31 00:20:48;;;;;;;9.75;2.67;;;15.10;86.50;;;;;;5066164;28;20074;-71
2021/12/31 00:23:17;;;;;;;7.55;2.30;;;15.10;86.50;;;;;;5065827;28;20125;-72
2021/12/31 00:25:44;;;;;;;11.43;3.55;;;15.10;86.50;;;;;;5065353;28;20472;-72
2021/12/31 00:28:11;;;;;;;12.02;3.70;;;15.00;86.30;;;;;;5065952;28;20043;-72
2021/12/31 00:30:39;;;;;;;10.27;3.30;;;15.00;86.30;;;;;;5065127;28;20032;-72
2021/12/31 00:33:06;;;;;;;10.07;3.53;;;15.10;86.50;;;;;;5048044;28;20426;-72
2021/12/31 00:35:33;;;;;;;10.60;3.45;;;15.00;86.30;;;;;;5065528;28;20039;-72
2021/12/31 00:37:59;;;;;;;7.90;2.90;;;15.10;86.50;;;;;;5064904;28;20024;-72
2021/12/31 00:40:28;;;;;;;8.15;2.15;;;15.10;86.50;;;;;;5065167;28;20082;-71
2021/12/31 00:42:55;;;;;;;6.90;2.97;;;15.10;86.40;;;;;;5067866;28;20037;-72
2021/12/31 00:45:24;;;;;;;5.65;2.67;;;15.10;86.40;;;;;;5069111;28;20082;-72
2021/12/31 00:47:51;;;;;;;9.93;3.60;;;15.00;86.20;;;;;;5069133;28;20075;-72
2021/12/31 00:50:17;;;;;;;5.20;2.63;;;15.00;86.20;;;;;;5064934;28;20024;-72
2021/12/31 00:52:45;;;;;;;6.43;2.35;;;15.10;86.40;;;;;;5068659;28;20084;-72
2021/12/31 00:55:11;;;;;;;8.30;2.42;;;15.00;86.20;;;;;;5049266;28;20468;-72
2021/12/31 00:57:39;;;;;;;10.05;3.20;;;15.10;86.30;;;;;;5049173;28;20404;-72
2021/12/31 01:00:07;;;;;;;7.85;3.63;;;15.00;86.10;;;;;;5048606;28;20207;-72
2021/12/31 01:02:33;;;;;;;6.13;2.30;;;15.10;86.30;;;;;;5048907;28;20052;-71
2021/12/31 01:04:59;;;;;;;5.35;2.22;;;15.00;86.10;;;;;;5047275;28;20066;-71
2021/12/31 01:07:25;;;;;;;7.22;2.38;;;15.00;86.10;;;;;;5049041;28;20033;-72
2021/12/31 01:09:52;;;;;;;10.20;3.10;;;15.00;86.10;;;;;;5049745;28;20056;-72
2021/12/31 01:12:18;;;;;;;9.57;3.08;;;15.00;86.10;;;;;;5049185;28;20033;-72
2021/12/31 01:14:57;;;;;;;8.57;2.80;;;15.00;86.10;;;;;;5048755;28;20036;-71
2021/12/31 01:17:45;;;;;;;6.75;2.75;;;15.00;86.10;;;;;;5048606;28;20510;-71
2021/12/31 01:20:11;;;;;;;8.73;2.70;;;15.00;86.10;;;;;;5048250;28;20078;-72
2021/12/31 01:22:38;;;;;;;5.82;2.83;;;15.10;86.30;;;;;;5049033;28;20056;-72
2021/12/31 01:25:05;;;;;;;7.93;3.20;;;15.00;86.10;;;;;;5048219;28;20446;-72
2021/12/31 01:27:32;;;;;;;5.78;2.63;;;15.10;86.20;;;;;;5048549;28;20060;-72
2021/12/31 01:29:58;;;;;;;6.88;2.70;;;15.00;86.10;;;;;;5048469;28;20035;-72
2021/12/31 01:32:25;;;;;;;6.30;2.70;;;15.10;86.30;;;;;;5049007;28;20036;-72
2021/12/31 01:34:51;;;;;;;9.95;2.50;;;15.10;86.20;;;;;;5048395;28;20484;-72
2021/12/31 01:37:17;;;;;;;7.35;3.53;;;15.00;86.10;;;;;;5048126;28;20039;-72
2021/12/31 01:39:43;;;;;;;8.65;2.50;;;15.00;86.10;;;;;;5048782;28;20116;-72
2021/12/31 01:42:14;;;;;;;8.98;2.20;;;15.00;86.10;;;;;;5048576;28;20040;-72
2021/12/31 01:44:46;;;;;;;8.38;3.53;;;15.00;86.10;;;;;;5046887;28;20369;-72
2021/12/31 01:47:15;;;;;;;6.22;2.45;;;15.00;86.10;;;;;;5067993;28;20048;-71
2021/12/31 01:49:54;;;;;;;8.07;3.60;;;15.00;86.10;;;;;;5067510;28;20763;-72
2021/12/31 01:52:21;;;;;;;7.35;3.35;;;15.00;86.10;;;;;;5068218;28;20024;-72
2021/12/31 01:54:47;;;;;;;8.63;2.88;;;15.00;86.10;;;;;;5067389;28;20048;-72
2021/12/31 01:57:13;;;;;;;9.07;2.80;;;15.00;86.00;;;;;;5068356;28;20064;-72
2021/12/31 01:59:41;;;;;;;9.65;3.42;;;15.00;86.10;;;;;;5067702;28;20029;-72
2021/12/31 02:02:08;;;;;;;7.60;3.63;;;15.00;86.10;;;;;;5068156;28;20044;-72
2021/12/31 02:04:37;;;;;;;8.88;3.20;;;15.00;86.10;;;;;;5068040;28;20028;-72
2021/12/31 02:07:04;;;;;;;6.50;2.72;;;15.00;86.10;;;;;;5067914;28;20398;-72
2021/12/31 02:09:35;;;;;;;12.95;3.88;;;15.00;86.10;;;;;;5067840;28;20194;-72
2021/12/31 02:12:01;;;;;;;9.07;3.35;;;14.90;85.90;;;;;;5068111;28;20295;-72
2021/12/31 02:14:28;;;;;;;6.75;2.63;;;15.00;86.10;;;;;;5067757;28;20495;-71
2021/12/31 02:16:54;;;;;;;8.32;3.22;;;15.00;86.10;;;;;;5067713;28;20037;-71
2021/12/31 02:19:27;;;;;;;8.75;2.90;;;15.00;86.10;;;;;;5066992;28;20047;-72
2021/12/31 02:21:54;;;;;;;8.65;3.58;;;14.90;86.00;;;;;;5067871;28;20098;-72
2021/12/31 02:24:22;;;;;;;5.47;2.97;;;15.00;86.10;;;;;;5067588;28;20033;-71
2021/12/31 02:26:49;;;;;;;10.35;3.20;;;15.00;86.10;;;;;;5067503;28;20036;-71
2021/12/31 02:29:15;;;;;;;10.90;3.70;;;15.00;86.20;;;;;;5067055;28;20031;-72
2021/12/31 02:31:41;;;;;;;8.75;3.00;;;15.00;86.10;;;;;;5075433;28;20479;-72
2021/12/31 02:34:07;;;;;;;18.30;5.20;;;15.00;86.10;;;;;;5069709;28;20150;-71
2021/12/31 02:36:33;;;;;;;6.97;3.05;;;15.00;86.10;;;;;;5079837;28;20363;-72
2021/12/31 02:38:59;;;;;;;13.63;4.22;;;15.00;86.10;;;;;;5072006;28;20060;-72
2021/12/31 02:41:25;;;;;;;7.38;3.67;;;15.00;86.10;;;;;;5081388;28;20533;-71
2021/12/31 02:43:51;;;;;;;9.57;3.65;;;15.00;86.10;;;;;;5068872;28;20119;-71
2021/12/31 02:46:17;;;;;;;11.27;3.88;;;14.90;85.90;;;;;;5070201;28;20017;-71
2021/12/31 02:48:44;;;;;;;8.85;3.53;;;14.90;85.90;;;;;;5071421;28;20087;-71
2021/12/31 02:51:11;;;;;;;10.40;3.72;;;15.00;86.10;;;;;;5071918;28;20029;-71
2021/12/31 02:53:41;;;;;;;9.57;3.58;;;14.90;86.00;;;;;;5072135;28;20032;-72
2021/12/31 02:56:12;;;;;;;8.57;3.85;;;15.00;86.20;;;;;;5072013;28;20111;-71
2021/12/31 02:58:39;;;;;;;11.07;4.85;;;14.90;86.00;;;;;;5071604;28;20040;-72
2021/12/31 03:01:08;;;;;;;8.93;4.32;;;14.90;86.00;;;;;;5071691;28;20033;-72
2021/12/31 03:03:35;;;;;;;9.70;3.28;;;14.90;86.00;;;;;;5071731;28;20060;-72
2021/12/31 03:06:02;;;;;;;14.18;4.60;;;14.90;86.00;;;;;;5071601;28;20027;-71
2021/12/31 03:08:35;;;;;;;10.65;4.32;;;15.00;86.20;;;;;;5071775;28;20048;-71
2021/12/31 03:11:04;;;;;;;9.73;3.80;;;15.00;86.20;;;;;;5053569;28;20104;-71
2021/12/31 03:13:31;;;;;;;9.52;4.05;;;14.90;86.10;;;;;;5071671;28;20056;-72
2021/12/31 03:15:59;;;;;;;7.55;3.30;;;14.90;86.10;;;;;;5071449;28;20020;-72
2021/12/31 03:18:26;;;;;;;7.55;2.88;;;14.90;86.10;;;;;;5071168;28;20403;-72
2021/12/31 03:21:02;;;;;;;7.88;3.95;;;15.00;86.30;;;;;;5071300;28;20032;-71
2021/12/31 03:23:29;;;;;;;9.13;3.35;;;15.00;86.30;;;;;;5071257;28;20039;-72
2021/12/31 03:25:55;;;;;;;10.38;4.18;;;15.00;86.30;;;;;;5071370;28;20364;-72
2021/12/31 03:28:22;;;;;;;8.98;3.25;;;15.00;86.30;;;;;;5071290;28;20058;-72
2021/12/31 03:30:48;;;;;;;9.23;3.13;;;14.90;86.10;;;;;;5071045;28;20610;-71
2021/12/31 03:33:15;;;;;;;7.25;2.97;;;14.90;86.10;;;;;;5071262;28;20063;-72
2021/12/31 03:35:42;;;;;;;7.28;3.50;;;14.90;86.20;;;;;;5071125;28;20039;-71
2021/12/31 03:38:08;;;;;;;9.35;3.65;;;14.90;86.70;;;;;;5070708;28;20025;-71
2021/12/31 03:40:34;;;;;;;7.63;3.20;;;15.00;86.40;;;;;;5070921;28;20044;-71
2021/12/31 03:43:00;;;;;;;9.07;4.07;;;15.00;86.40;;;;;;5070873;28;20132;-72
2021/12/31 03:45:27;;;;;;;9.23;3.30;;;15.00;86.40;;;;;;5053318;28;20518;-71
2021/12/31 03:47:53;;;;;;;6.75;3.80;;;15.00;86.40;;;;;;5070712;28;20541;-72
2021/12/31 03:50:19;;;;;;;12.80;5.72;;;15.00;86.40;;;;;;5070598;28;20032;-71
2021/12/31 03:52:45;;;;;;;5.40;3.40;;;15.00;86.40;;;;;;5070563;28;20147;-71
2021/12/31 03:55:11;;;;;;;7.22;3.08;;;15.00;86.40;;;;;;5053340;28;20112;-71
2021/12/31 03:57:38;;;;;;;5.65;3.22;;;15.00;86.40;;;;;;5070938;28;20020;-72
2021/12/31 04:00:05;;;;;;;11.43;3.53;;;15.00;86.50;;;;;;5069444;28;20111;-71
2021/12/31 04:02:32;;;;;;;7.57;3.42;;;15.00;86.40;;;;;;5052883;28;20052;-71
2021/12/31 04:04:58;;;;;;;10.55;3.50;;;15.00;86.50;;;;;;5070659;28;20064;-71
2021/12/31 04:07:24;;;;;;;13.27;4.15;;;14.90;86.30;;;;;;5065525;28;20070;-71
2021/12/31 04:09:50;;;;;;;8.90;4.25;;;14.90;86.30;;;;;;5070251;28;20474;-71
2021/12/31 04:12:16;;;;;;;8.88;3.45;;;15.00;86.50;;;;;;5070912;28;20518;-71
2021/12/31 04:14:42;;;;;;;6.05;3.10;;;14.90;86.30;;;;;;5070676;28;20108;-71
2021/12/31 04:17:08;;;;;;;9.32;3.58;;;14.90;86.30;;;;;;5070010;28;20131;-71
2021/12/31 04:19:35;;;;;;;7.38;3.28;;;14.90;86.30;;;;;;5069762;28;20037;-71
2021/12/31 04:22:01;;;;;;;10.02;3.67;;;14.90;86.30;;;;;;5070275;28;20097;-71
2021/12/31 04:27:12;;;;;;;11.40;4.28;;;14.90;86.40;;;;;;5070815;28;20451;-71
2021/12/31 04:29:39;;;;;;;9.35;3.30;;;14.90;86.40;;;;;;5070398;28;20024;-71
2021/12/31 04:32:06;;;;;;;6.80;3.33;;;14.80;86.20;;;;;;5070462;28;20029;-71
2021/12/31 04:34:32;;;;;;;10.65;4.25;;;14.90;86.50;;;;;;5070596;28;20036;-71
2021/12/31 04:36:58;;;;;;;7.70;3.95;;;14.90;86.50;;;;;;5070153;28;20046;-71
2021/12/31 04:39:24;;;;;;;11.07;3.92;;;14.90;86.50;;;;;;5066316;28;20094;-72
2021/12/31 04:41:50;;;;;;;8.98;3.15;;;14.90;86.60;;;;;;5069756;28;20037;-71
2021/12/31 04:44:16;;;;;;;6.05;3.20;;;14.90;86.60;;;;;;5070393;28;20032;-71
2021/12/31 04:46:42;;;;;;;8.80;4.47;;;14.90;86.60;;;;;;5069643;28;20036;-71
2021/12/31 04:49:09;;;;;;;8.70;3.75;;;14.80;86.40;;;;;;5069727;28;20614;-70
2021/12/31 04:51:35;;;;;;;8.45;3.78;;;14.90;86.60;;;;;;5070324;28;20036;-71
2021/12/31 04:54:01;;;;;;;9.10;3.63;;;14.90;86.60;;;;;;5070512;28;20111;-71
2021/12/31 04:56:27;;;;;;;10.05;4.38;;;14.80;86.50;;;;;;5070330;28;20044;-71
2021/12/31 04:58:53;;;;;;;12.45;4.03;;;14.80;86.50;;;;;;5070032;28;20153;-71
2021/12/31 05:01:21;;;;;;;12.38;4.13;;;14.90;86.60;;;;;;5052284;28;20052;-71
2021/12/31 05:03:50;;;;;;;11.30;4.18;;;14.90;86.60;;;;;;5070062;28;20032;-71
2021/12/31 05:06:16;;;;;;;10.27;3.25;;;14.90;86.60;;;;;;5070592;28;20025;-71
2021/12/31 05:08:43;;;;;;;9.50;3.97;;;14.80;86.40;;;;;;5069776;28;20040;-71
2021/12/31 05:11:08;;;;;;;8.45;3.65;;;14.80;86.50;;;;;;5070123;28;20029;-71
2021/12/31 05:13:34;;;;;;;11.38;4.05;;;14.90;86.60;;;;;;5070051;28;20039;-71
2021/12/31 05:16:06;;;;;;;8.07;4.15;;;14.80;86.50;;;;;;5068885;28;20035;-71
2021/12/31 05:18:32;;;;;;;13.40;4.57;;;14.80;86.50;;;;;;5051996;28;20040;-71
2021/12/31 05:20:58;;;;;;;9.90;3.25;;;14.90;86.60;;;;;;5069635;28;20021;-71
2021/12/31 05:23:24;;;;;;;10.98;3.90;;;14.90;86.70;;;;;;5070312;28;20403;-71
2021/12/31 05:25:50;;;;;;;5.18;3.20;;;14.80;86.50;;;;;;5070116;28;20185;-71
2021/12/31 05:28:16;;;;;;;8.93;3.90;;;14.80;86.50;;;;;;5070001;28;20155;-71
2021/12/31 05:30:42;;;;;;;14.20;5.78;;;14.80;86.50;;;;;;5073092;28;20030;-70
2021/12/31 05:33:08;;;;;;;8.70;4.18;;;14.80;86.60;;;;;;5055406;28;20063;-71
2021/12/31 05:35:34;;;;;;;6.95;3.22;;;14.80;86.60;;;;;;5073583;28;20063;-71
2021/12/31 05:38:00;;;;;;;11.10;3.70;;;14.80;86.60;;;;;;5073295;28;20089;-71
2021/12/31 05:40:26;;;;;;;7.03;3.08;;;14.80;86.60;;;;;;5073299;28;20032;-70
2021/12/31 05:42:52;;;;;;;7.30;4.32;;;14.80;86.60;;;;;;5073114;28;20051;-71
2021/12/31 05:45:18;;;;;;;8.52;4.47;;;14.80;86.60;;;;;;5070764;28;20029;-71
2021/12/31 05:47:46;;;;;;;7.07;3.95;;;14.80;86.70;;;;;;5056270;28;20074;-70
2021/12/31 05:50:19;;;;;;;10.02;3.83;;;14.80;86.70;;;;;;5059675;28;20025;-71
2021/12/31 05:52:46;;;;;;;7.95;3.05;;;14.80;86.70;;;;;;5064169;28;20090;-71
2021/12/31 05:55:13;;;;;;;8.93;3.95;;;14.80;86.70;;;;;;5075688;28;20488;-71
2021/12/31 05:57:39;;;;;;;10.60;3.75;;;14.80;86.70;;;;;;5063983;28;20549;-71
2021/12/31 06:00:05;;;;;;;8.23;3.72;;;14.80;86.80;;;;;;5070724;28;20032;-71
2021/12/31 06:02:31;;;;;;;5.97;3.10;;;14.80;86.80;;;;;;5064366;28;20037;-71
2021/12/31 06:04:57;;;;;;;8.85;3.67;;;14.70;86.60;;;;;;5057133;28;20024;-71
2021/12/31 06:07:23;;;;;;;8.00;3.38;;;14.70;86.60;;;;;;5070836;28;20033;-71
2021/12/31 06:09:49;;;;;;;10.02;5.40;;;14.80;86.90;;;;;;5057355;28;20035;-71
2021/12/31 06:12:15;;;;;;;7.63;3.92;;;14.70;86.70;;;;;;5054027;28;20094;-71
2021/12/31 06:14:41;;;;;;;7.35;3.88;;;14.70;86.70;;;;;;5064682;28;20032;-71
2021/12/31 06:17:08;;;;;;;7.28;3.65;;;14.70;86.70;;;;;;5067741;28;20376;-71
2021/12/31 06:19:35;;;;;;;8.57;2.95;;;14.70;86.80;;;;;;5066766;28;20024;-71
2021/12/31 06:22:01;;;;;;;8.90;3.03;;;14.70;86.80;;;;;;5067634;28;20095;-72
2021/12/31 06:24:27;;;;;;;7.25;3.58;;;14.70;86.80;;;;;;5068018;28;20838;-72
2021/12/31 06:26:54;;;;;;;6.75;2.83;;;14.60;86.70;;;;;;5067268;28;20024;-72
2021/12/31 06:29:20;;;;;;;9.30;4.07;;;14.70;86.90;;;;;;5067307;28;20028;-72
2021/12/31 06:31:46;;;;;;;9.90;3.47;;;14.70;86.90;;;;;;5067565;28;20074;-72
2021/12/31 06:34:12;;;;;;;8.07;3.85;;;14.60;86.80;;;;;;5032703;28;20021;-72
2021/12/31 06:36:38;;;;;;;4.28;2.90;;;14.60;86.80;;;;;;5049621;28;20029;-72
2021/12/31 06:39:04;;;;;;;6.55;2.80;;;14.60;86.80;;;;;;5053956;28;20397;-73
2021/12/31 06:41:30;;;;;;;7.03;3.22;;;14.70;87.00;;;;;;5086869;28;20388;-72
2021/12/31 06:43:56;;;;;;;6.35;3.25;;;14.60;86.90;;;;;;5064088;28;20040;-72
2021/12/31 06:46:24;;;;;;;5.85;3.08;;;14.70;87.00;;;;;;5030088;28;20037;-72
2021/12/31 06:48:50;;;;;;;4.95;3.10;;;14.70;87.10;;;;;;5070322;28;20538;-72
2021/12/31 06:51:16;;;;;;;6.85;2.75;;;14.70;87.10;;;;;;5068533;28;20475;-72
2021/12/31 06:53:42;;;;;;;7.55;3.20;;;14.70;87.00;;;;;;5067724;28;20040;-72
2021/12/31 06:56:08;;;;;;;5.32;2.88;;;14.70;87.00;;;;;;5047049;28;20028;-71
2021/12/31 06:58:34;;;;;;;4.85;2.40;;;14.70;87.00;;;;;;5046488;28;20060;-72
2021/12/31 07:01:00;;;;;;;6.63;3.30;;;14.70;87.10;;;;;;5046782;28;20032;-72
2021/12/31 07:03:26;;;;;;;8.77;3.35;;;14.70;87.00;;;;;;5047006;28;20037;-72
2021/12/31 07:05:52;;;;;;;4.00;2.20;;;14.70;87.10;;;;;;5046089;28;20264;-71
2021/12/31 07:08:18;;;;;;;5.93;2.47;;;14.70;87.10;;;;;;5046654;28;20606;-72
2021/12/31 07:10:44;;;;;;;4.47;2.88;;;14.70;87.10;;;;;;5046222;28;20021;-72
2021/12/31 07:13:12;;;;;;;6.15;2.70;;;14.60;86.90;;;;;;5046634;28;20033;-72
2021/12/31 07:15:40;;;;;;;6.82;2.85;;;14.70;87.10;;;;;;5046479;28;20033;-72
2021/12/31 07:18:07;;;;;;;3.33;2.03;;;14.60;86.90;;;;;;5046372;28;20252;-72
2021/12/31 07:20:33;;;;;;;4.93;2.30;;;14.70;87.10;;;;;;5045524;28;20087;-72
2021/12/31 07:23:07;;;;;;;4.90;1.95;;;14.70;87.10;;;;;;5078315;28;20371;-73
2021/12/31 07:25:34;;;;;;;5.13;1.83;;;14.60;87.00;;;;;;5065007;28;20056;-71
2021/12/31 07:28:00;;;;;;;4.70;2.30;;;14.70;87.30;;;;;;5065133;28;20055;-71
2021/12/31 07:30:27;;;;;;;6.57;2.20;;;14.70;87.40;;;;;;5069252;28;20415;-71
2021/12/31 07:32:53;;;;;;;7.22;2.78;;;14.70;87.50;;;;;;5063846;28;20089;-72
2021/12/31 07:35:19;;;;;;;5.10;2.70;;;14.70;87.50;;;;;;5032613;28;20027;-72
2021/12/31 07:37:45;;;;;;;3.35;1.40;;;14.80;88.20;;;;;;5058639;28;20036;-72
2021/12/31 07:40:12;;;;;;;7.30;2.60;;;14.80;87.70;;;;;;5046042;28;20111;-71
2021/12/31 07:42:39;;;;;;;5.85;2.58;;;14.80;87.60;;;;;;5046216;28;20037;-72
2021/12/31 07:45:06;;;;;;;2.63;1.70;;;14.80;87.60;;;;;;5063819;28;20036;-71
2021/12/31 07:47:33;;;;;;;2.65;1.30;;;14.80;87.60;;;;;;5064529;28;20052;-72
2021/12/31 07:49:59;;;;;;;4.38;1.90;;;14.80;87.60;;;;;;5045229;28;20064;-72
2021/12/31 07:52:25;;;;;;;3.65;1.98;;;14.80;87.60;;;;;;5026647;28;20362;-73
2021/12/31 07:54:51;;;;;;;2.53;1.75;;;14.80;87.60;;;;;;5045910;28;20074;-72
2021/12/31 07:57:17;;;;;;;4.68;1.92;;;14.80;87.60;;;;;;5045734;28;20036;-73
2021/12/31 07:59:43;;;;;;;2.80;1.60;;;14.80;87.60;;;;;;5046066;28;20064;-72
2021/12/31 08:02:08;;;;;;;4.03;1.75;;;14.80;87.60;;;;;;5045812;28;20373;-72
2021/12/31 08:04:35;;;;;;;3.72;2.13;;;14.80;87.60;;;;;;5045464;28;20037;-72
2021/12/31 08:07:01;;;;;;;5.35;1.77;;;14.80;87.60;;;;;;5045515;28;20037;-72
2021/12/31 08:09:26;;;;;;;3.30;1.55;;;14.80;87.70;;;;;;5045630;28;20392;-73
2021/12/31 08:11:52;;;;;;;2.97;1.42;;;14.70;87.50;;;;;;5045707;28;20032;-72
2021/12/31 08:14:18;;;;;;;4.10;1.42;;;14.70;87.50;;;;;;5045581;28;20169;-72
2021/12/31 08:16:44;;;;;;;2.47;1.27;;;14.70;87.50;;;;;;5045284;28;20097;-72
2021/12/31 08:19:10;;;;;;;5.03;1.92;;;14.70;87.60;;;;;;5045285;28;20033;-71
2021/12/31 08:21:36;;;;;;;4.22;1.60;;;14.70;87.50;;;;;;5045220;28;20062;-73
2021/12/31 08:24:02;;;;;;;1.98;1.20;;;14.70;87.50;;;;;;5036539;28;20040;-72
2021/12/31 08:26:28;;;;;;;1.88;1.15;;;14.70;87.60;;;;;;5045096;28;20021;-72
2021/12/31 08:28:55;;;;;;;3.55;1.90;;;14.70;87.50;;;;;;5045298;28;20043;-72
2021/12/31 08:31:21;;;;;;;2.00;1.20;;;14.70;87.60;;;;;;5045637;28;20074;-73
2021/12/31 08:33:47;;;;;;;2.92;1.40;;;14.70;87.50;;;;;;5045497;28;20036;-72
2021/12/31 08:36:13;;;;;;;1.50;1.05;;;14.70;87.50;;;;;;5045313;28;20029;-72
2021/12/31 08:38:39;;;;;;;3.08;1.48;;;14.70;87.50;;;;;;5045042;28;20039;-73
2021/12/31 08:41:05;;;;;;;3.20;2.13;;;14.70;87.50;;;;;;5045939;28;20108;-72
2021/12/31 08:43:31;;;;;;;2.67;1.35;;;14.80;87.70;;;;;;5045008;28;20120;-73
2021/12/31 08:45:57;;;;;;;3.53;1.15;;;14.70;87.50;;;;;;5045559;28;20067;-72
2021/12/31 08:48:23;;;;;;;1.65;1.10;;;14.70;87.40;;;;;;5044904;28;20506;-72
2021/12/31 08:50:49;;;;;;;3.03;1.50;;;14.80;87.60;;;;;;5045092;28;20037;-72
2021/12/31 08:53:15;;;;;;;2.10;1.30;;;14.80;87.50;;;;;;5032625;28;20035;-72
2021/12/31 08:55:42;;;;;;;2.35;1.33;;;14.80;87.50;;;;;;5065257;28;20122;-72
2021/12/31 08:58:08;;;;;;;3.47;1.15;;;14.80;87.50;;;;;;5065111;28;20028;-73
2021/12/31 09:00:35;;;;;;;1.60;1.20;;;14.80;87.50;;;;;;5065321;28;20033;-72
2021/12/31 09:03:01;;;;;;;1.52;1.00;;;14.80;87.50;;;;;;5066017;28;20044;-72
2021/12/31 09:05:27;;;;;;;2.28;1.10;;;14.80;87.50;;;;;;5069331;28;20057;-72
2021/12/31 09:07:53;;;;;;;2.30;1.10;;;14.80;87.50;;;;;;5068606;28;20035;-72
2021/12/31 09:10:20;;;;;;;3.17;1.17;;;14.80;87.50;;;;;;5050817;28;20547;-72
2021/12/31 09:12:46;;;;;;;1.95;1.10;;;14.80;87.50;;;;;;5067736;28;20039;-71
2021/12/31 09:15:13;;;;;;;2.67;1.40;;;14.80;87.50;;;;;;5067943;28;20032;-72
2021/12/31 09:17:40;;;;;;;2.80;1.13;;;14.80;87.50;;;;;;5068623;28;20129;-72
2021/12/31 09:20:07;;;;;;;2.38;1.20;;;14.80;87.40;;;;;;5062893;28;20568;-72
2021/12/31 09:22:33;;;;;;;3.42;1.30;;;14.90;87.60;;;;;;5068012;28;20118;-73
2021/12/31 09:24:59;;;;;;;3.47;1.65;;;14.80;87.40;;;;;;5067040;28;20067;-72
2021/12/31 09:27:26;;;;;;;2.15;1.20;;;14.80;87.40;;;;;;5068651;28;20032;-73
2021/12/31 09:29:53;;;;;;;1.95;1.23;;;14.90;87.50;;;;;;5060051;28;20121;-73
2021/12/31 09:32:19;;;;;;;1.80;1.30;;;14.90;87.40;;;;;;5068538;28;20327;-73
2021/12/31 09:34:48;;;;;;;2.72;1.15;;;14.90;87.40;;;;;;5068848;28;20025;-73
2021/12/31 09:37:14;;;;;;;2.75;1.40;;;14.90;87.30;;;;;;5050359;28;20040;-73
2021/12/31 09:39:40;;;;;;;4.32;1.27;;;15.00;87.50;;;;;;5068310;28;20032;-73
2021/12/31 09:42:07;;;;;;;2.30;1.15;;;15.00;87.40;;;;;;5068317;28;20155;-72
2021/12/31 09:44:35;;;;;;;3.70;1.25;;;15.10;87.50;;;;;;5067918;28;20038;-72
2021/12/31 09:47:07;;;;;;;3.97;1.70;;;15.00;87.40;;;;;;5067888;28;20044;-73
2021/12/31 09:49:35;;;;;;;3.63;1.20;;;15.10;87.50;;;;;;5047649;28;20062;-73
2021/12/31 09:52:02;;;;;;;1.98;1.27;;;15.10;87.40;;;;;;5068741;28;20025;-72
2021/12/31 09:54:28;;;;;;;2.38;1.42;;;15.10;87.30;;;;;;5052904;28;20118;-72
2021/12/31 09:56:54;;;;;;;4.70;1.20;;;15.10;87.30;;;;;;5047959;28;20060;-72
2021/12/31 09:59:23;;;;;;;3.97;1.40;;;15.10;87.30;;;;;;5047675;28;20511;-72
2021/12/31 10:01:51;;;;;;;7.03;1.50;;;15.10;87.20;;;;;;5048040;28;20029;-72
2021/12/31 10:04:17;;;;;;;5.47;2.35;;;15.20;87.40;;;;;;5047762;28;20388;-71
2021/12/31 10:07:09;;;;;;;3.45;1.30;;;15.10;87.20;;;;;;5048161;28;20419;-71
2021/12/31 10:09:36;;;;;;;3.22;1.60;;;15.10;87.20;;;;;;5057766;28;20127;-72
2021/12/31 10:12:02;;;;;;;4.05;1.70;;;15.10;87.20;;;;;;5037506;28;20380;-72
2021/12/31 10:14:40;;;;;;;7.65;3.22;;;15.10;87.20;;;;;;5047925;28;20040;-72
2021/12/31 10:17:08;;;;;;;8.35;2.70;;;15.10;87.20;;;;;;5048417;28;20021;-72
2021/12/31 10:19:34;;;;;;;4.50;1.88;;;15.20;87.40;;;;;;5030347;28;20400;-72
2021/12/31 10:22:01;;;;;;;3.28;2.13;;;15.10;87.20;;;;;;5047725;28;20280;-71
2021/12/31 10:24:33;;;;;;;6.28;2.10;;;15.20;87.30;;;;;;5046971;28;20033;-71
2021/12/31 10:27:14;;;;;;;2.60;1.30;;;15.20;87.30;;;;;;5047733;28;20094;-73
2021/12/31 10:30:03;;;;;;;4.15;1.75;;;15.30;87.40;;;;;;5049861;28;20036;-72
2021/12/31 10:32:32;;;;;;;4.95;2.22;;;15.30;87.30;;;;;;5067224;28;20481;-72
2021/12/31 10:35:12;;;;;;;4.72;1.85;;;15.30;87.20;;;;;;5067045;28;20032;-73
2021/12/31 10:37:47;;;;;;;6.97;2.22;;;15.30;87.20;;;;;;5067970;28;20387;-73
2021/12/31 10:40:39;;;;;;;6.93;1.90;;;15.30;87.10;;;;;;5067562;28;20063;-72
2021/12/31 10:43:18;;;;;;;4.68;1.75;;;15.40;87.30;;;;;;5066179;28;20051;-72
2021/12/31 10:46:08;;;;;;;4.63;1.63;;;15.40;87.30;;;;;;5049366;28;20056;-72
2021/12/31 10:48:45;;;;;;;4.93;2.03;;;15.30;87.10;;;;;;5066768;28;20369;-72
2021/12/31 10:51:17;;;;;;;10.32;2.35;;;15.40;87.20;;;;;;5067383;28;20025;-72
2021/12/31 10:53:50;;;;;;;6.03;2.70;;;15.40;87.20;;;;;;5066676;28;20032;-72
2021/12/31 10:56:17;;;;;;;4.20;1.83;;;15.40;87.10;;;;;;5066516;28;20033;-72
2021/12/31 10:58:56;;;;;;;8.40;3.72;;;15.50;87.30;;;;;;5066581;28;20037;-73
2021/12/31 11:01:23;;;;;;;6.18;2.78;;;15.50;87.20;;;;;;5067515;28;20067;-72
2021/12/31 11:03:49;;;;;;;5.13;2.38;;;15.50;87.20;;;;;;5066033;28;20043;-71
2021/12/31 11:06:16;;;;;;;6.35;2.45;;;15.60;87.30;;;;;;5049261;28;20036;-71
2021/12/31 11:08:44;;;;;;;8.93;2.35;;;15.60;87.10;;;;;;5065907;28;20033;-72
2021/12/31 11:11:12;;;;;;;8.10;3.00;;;15.80;87.30;;;;;;5066984;28;20033;-71
2021/12/31 11:13:39;;;;;;;8.02;2.38;;;15.80;87.10;;;;;;5067130;28;20033;-72
2021/12/31 11:16:04;;;;;;;5.38;2.00;;;15.80;87.00;;;;;;5065411;28;20037;-72
2021/12/31 11:18:30;;;;;;;6.25;2.33;;;15.90;87.10;;;;;;5057497;28;20033;-72
2021/12/31 11:21:01;;;;;;;4.68;1.92;;;15.90;87.00;;;;;;5046866;28;20124;-72
2021/12/31 11:23:30;;;;;;;6.47;2.08;;;16.00;87.10;;;;;;5046511;28;20036;-72
2021/12/31 11:25:58;;;;;;;7.72;2.08;;;16.00;87.00;;;;;;5045748;28;20036;-72
2021/12/31 11:28:31;;;;;;;4.93;1.92;;;16.00;86.90;;;;;;5049644;28;20508;-72
2021/12/31 11:31:16;;;;;;;5.15;2.63;;;16.10;86.90;;;;;;5046181;28;20067;-72
2021/12/31 11:33:45;;;;;;;5.22;2.50;;;16.20;87.00;;;;;;5053928;28;20032;-72
2021/12/31 11:36:11;;;;;;;6.35;2.97;;;16.10;86.80;;;;;;5067422;28;20426;-73
2021/12/31 11:38:39;;;;;;;5.57;2.05;;;16.20;86.80;;;;;;5065615;28;20043;-72
2021/12/31 11:41:19;;;;;;;6.18;2.50;;;16.20;86.80;;;;;;5066030;28;20484;-71
2021/12/31 11:44:07;;;;;;;6.95;2.50;;;16.30;86.90;;;;;;5065455;28;20127;-72
2021/12/31 11:46:35;;;;;;;7.13;3.22;;;16.30;86.80;;;;;;5066023;28;20051;-73
2021/12/31 11:49:07;;;;;;;6.68;2.30;;;16.30;86.70;;;;;;5047615;28;20114;-73
2021/12/31 11:51:54;;;;;;;8.00;3.63;;;16.40;86.80;;;;;;5066467;28;20050;-72
2021/12/31 11:54:20;;;;;;;8.80;3.00;;;16.40;86.70;;;;;;5065194;28;20089;-72
2021/12/31 11:56:50;;;;;;;5.35;2.28;;;16.40;86.60;;;;;;5065755;28;20378;-72
2021/12/31 11:59:24;;;;;;;7.50;2.75;;;16.50;86.70;;;;;;5065589;28;20051;-72
2021/12/31 12:01:52;;;;;;;5.55;3.00;;;16.50;86.60;;;;;;5066021;28;20070;-72
2021/12/31 12:04:31;;;;;;;6.22;2.50;;;16.50;86.60;;;;;;5065393;28;20045;-72
2021/12/31 12:06:57;;;;;;;8.27;2.90;;;16.50;86.50;;;;;;5065926;28;20044;-72
2021/12/31 12:09:47;;;;;;;8.88;2.90;;;16.50;86.50;;;;;;5065884;28;20028;-72
2021/12/31 12:12:23;;;;;;;7.95;3.40;;;16.50;86.40;;;;;;5066216;28;20036;-71
2021/12/31 12:14:53;;;;;;;7.22;2.60;;;16.50;86.40;;;;;;5065625;28;20502;-71
2021/12/31 12:17:28;;;;;;;7.47;2.47;;;16.50;86.40;;;;;;5047924;28;20035;-72
2021/12/31 12:20:03;;;;;;;9.43;2.70;;;16.60;86.40;;;;;;5065538;28;20038;-72
2021/12/31 12:22:39;;;;;;;6.32;3.03;;;16.60;86.40;;;;;;5065529;28;20134;-72
2021/12/31 12:25:14;;;;;;;11.13;2.80;;;16.60;86.30;;;;;;5065360;28;20037;-74
2021/12/31 12:27:41;;;;;;;8.30;2.85;;;16.60;86.30;;;;;;5038488;28;20033;-72
2021/12/31 12:30:10;;;;;;;13.52;3.80;;;16.60;86.20;;;;;;5055031;28;20204;-72
2021/12/31 12:32:50;;;;;;;7.80;2.85;;;16.60;86.10;;;;;;5065675;28;20028;-72
2021/12/31 12:35:16;;;;;;;11.70;2.55;;;16.70;86.20;;;;;;5065853;28;20037;-72
2021/12/31 12:37:42;;;;;;;8.13;3.30;;;16.70;86.10;;;;;;5046079;28;20025;-71
2021/12/31 12:40:09;;;;;;;8.80;2.90;;;16.70;86.00;;;;;;5049821;28;20025;-71
2021/12/31 12:42:35;;;;;;;10.65;3.00;;;16.70;85.90;;;;;;5049503;28;20045;-71
2021/12/31 12:45:07;;;;;;;6.40;2.40;;;16.80;86.00;;;;;;5049389;28;20033;-73
2021/12/31 12:47:36;;;;;;;7.65;2.50;;;16.80;86.00;;;;;;5048977;28;20048;-72
2021/12/31 12:50:07;;;;;;;10.15;2.97;;;16.90;86.10;;;;;;5049332;28;20556;-72
2021/12/31 12:52:34;;;;;;;10.57;3.67;;;16.90;85.90;;;;;;5049392;28;20056;-73